createdAt,value
2022-08-22T00:02:58.484Z,0.00
2022-08-22T00:03:00.350Z,0.00
2022-08-22T00:03:04.818Z,0.00
2022-08-22T00:03:09.129Z,0.00
2022-08-22T05:29:30.698Z,219.38
2022-08-22T05:30:09.627Z,225.00
2022-08-22T05:31:09.581Z,230.62
2022-08-22T05:32:09.582Z,236.25
2022-08-22T05:33:09.643Z,241.88
2022-08-22T05:34:09.645Z,247.50
2022-08-22T05:35:09.505Z,253.12
2022-08-22T05:36:09.682Z,253.12
2022-08-22T05:37:09.651Z,264.38
2022-08-22T05:38:09.494Z,275.62
2022-08-22T05:39:09.464Z,286.88
2022-08-22T05:40:09.462Z,292.50
2022-08-22T05:41:09.485Z,298.12
2022-08-22T05:42:09.424Z,303.75
2022-08-22T05:43:09.624Z,303.75
2022-08-22T05:44:09.374Z,309.38
2022-08-22T05:45:12.259Z,315.00
2022-08-22T05:46:09.435Z,326.25
2022-08-22T05:47:09.506Z,343.12
2022-08-22T05:48:09.459Z,354.38
2022-08-22T05:49:09.437Z,376.88
2022-08-22T05:50:09.296Z,388.12
2022-08-22T05:51:09.259Z,399.38
2022-08-22T05:52:09.327Z,421.88
2022-08-22T05:53:09.528Z,438.75
2022-08-22T05:54:09.497Z,450.00
2022-08-22T05:55:09.229Z,466.88
2022-08-22T05:56:09.310Z,472.50
2022-08-22T05:57:09.366Z,472.50
2022-08-22T05:58:09.199Z,466.88
2022-08-22T05:59:09.408Z,466.88
2022-08-22T06:00:09.211Z,472.50
2022-08-22T06:01:09.163Z,483.75
2022-08-22T06:02:09.255Z,472.50
2022-08-22T06:03:09.101Z,455.62
2022-08-22T06:04:09.129Z,427.50
2022-08-22T06:05:12.014Z,405.00
2022-08-22T06:06:09.088Z,416.25
2022-08-22T06:07:09.100Z,399.38
2022-08-22T06:08:09.462Z,388.12
2022-08-22T06:09:09.148Z,382.50
2022-08-22T06:10:09.038Z,382.50
2022-08-22T06:11:09.027Z,376.88
2022-08-22T06:12:10.840Z,371.25
2022-08-22T06:13:11.630Z,371.25
2022-08-22T06:14:08.947Z,371.25
2022-08-22T06:15:11.777Z,371.25
2022-08-22T06:16:09.352Z,376.88
2022-08-22T06:17:08.978Z,382.50
2022-08-22T06:18:08.953Z,382.50
2022-08-22T06:19:19.361Z,371.25
2022-08-22T06:20:09.875Z,388.12
2022-08-22T06:21:08.889Z,382.50
2022-08-22T06:22:11.730Z,360.00
2022-08-22T06:23:10.680Z,371.25
2022-08-22T06:24:08.811Z,371.25
2022-08-22T06:25:08.869Z,393.75
2022-08-22T06:26:20.549Z,393.75
2022-08-22T06:27:10.755Z,371.25
2022-08-22T06:28:08.826Z,376.88
2022-08-22T06:29:08.788Z,388.12
2022-08-22T06:30:08.719Z,393.75
2022-08-22T06:31:08.718Z,393.75
2022-08-22T06:32:08.715Z,393.75
2022-08-22T06:33:12.272Z,388.12
2022-08-22T06:34:09.608Z,382.50
2022-08-22T06:35:08.633Z,382.50
2022-08-22T06:36:08.655Z,405.00
2022-08-22T06:37:08.647Z,444.38
2022-08-22T06:38:09.049Z,495.00
2022-08-22T06:39:08.616Z,562.50
2022-08-22T06:40:08.749Z,551.25
2022-08-22T06:41:08.569Z,517.50
2022-08-22T06:42:11.159Z,416.25
2022-08-22T06:43:08.530Z,410.62
2022-08-22T06:44:08.559Z,416.25
2022-08-22T06:45:08.508Z,421.88
2022-08-22T06:46:08.494Z,427.50
2022-08-22T06:47:08.506Z,433.12
2022-08-22T06:48:08.508Z,444.38
2022-08-22T06:49:08.602Z,455.62
2022-08-22T06:50:08.470Z,466.88
2022-08-22T06:51:09.454Z,466.88
2022-08-22T06:52:08.500Z,461.25
2022-08-22T06:53:08.596Z,466.88
2022-08-22T06:54:08.473Z,472.50
2022-08-22T06:55:08.372Z,489.38
2022-08-22T06:56:09.264Z,506.25
2022-08-22T06:57:08.377Z,517.50
2022-08-22T06:58:08.333Z,534.38
2022-08-22T06:59:08.350Z,562.50
2022-08-22T07:00:08.296Z,579.38
2022-08-22T07:01:12.388Z,573.75
2022-08-22T07:02:08.383Z,562.50
2022-08-22T07:03:08.334Z,562.50
2022-08-22T07:04:08.339Z,568.12
2022-08-22T07:05:08.279Z,573.75
2022-08-22T07:06:09.066Z,585.00
2022-08-22T07:07:08.218Z,630.00
2022-08-22T07:08:08.337Z,663.75
2022-08-22T07:09:08.252Z,669.38
2022-08-22T07:10:08.276Z,911.25
2022-08-22T07:11:08.556Z,866.25
2022-08-22T07:12:08.163Z,652.50
2022-08-22T07:13:08.202Z,551.25
2022-08-22T07:14:08.192Z,534.38
2022-08-22T07:15:08.154Z,540.00
2022-08-22T07:16:08.256Z,545.62
2022-08-22T07:17:08.174Z,556.88
2022-08-22T07:18:08.157Z,579.38
2022-08-22T07:19:08.094Z,601.88
2022-08-22T07:20:08.110Z,607.50
2022-08-22T07:21:08.123Z,691.88
2022-08-22T07:22:08.060Z,720.00
2022-08-22T07:23:08.098Z,787.50
2022-08-22T07:24:08.017Z,1203.75
2022-08-22T07:25:08.180Z,1006.88
2022-08-22T07:26:07.995Z,900.00
2022-08-22T07:27:07.978Z,1237.50
2022-08-22T07:28:08.015Z,1158.75
2022-08-22T07:29:11.233Z,1231.88
2022-08-22T07:30:10.258Z,1282.50
2022-08-22T07:31:07.980Z,1305.00
2022-08-22T07:32:08.920Z,1305.00
2022-08-22T07:33:25.657Z,1316.25
2022-08-22T07:34:08.960Z,1333.12
2022-08-22T07:35:07.875Z,1344.38
2022-08-22T07:36:08.103Z,1355.62
2022-08-22T07:37:08.259Z,1389.38
2022-08-22T07:38:07.820Z,1395.00
2022-08-22T07:39:07.803Z,1372.50
2022-08-22T07:40:07.866Z,1372.50
2022-08-22T07:41:07.845Z,1411.88
2022-08-22T07:42:07.794Z,1445.62
2022-08-22T07:43:08.595Z,1456.88
2022-08-22T07:44:07.738Z,1417.50
2022-08-22T07:45:07.727Z,1389.38
2022-08-22T07:46:07.685Z,1411.88
2022-08-22T07:47:07.828Z,1456.88
2022-08-22T07:48:07.708Z,1411.88
2022-08-22T07:49:09.434Z,1423.12
2022-08-22T07:50:07.707Z,1462.50
2022-08-22T07:51:07.797Z,1479.38
2022-08-22T07:52:07.621Z,1445.62
2022-08-22T07:53:07.685Z,1468.12
2022-08-22T07:54:07.634Z,1451.25
2022-08-22T07:55:07.789Z,1411.88
2022-08-22T07:56:07.671Z,1411.88
2022-08-22T07:57:07.813Z,1462.50
2022-08-22T07:58:07.701Z,1552.50
2022-08-22T07:59:12.757Z,1507.50
2022-08-22T08:00:08.508Z,1501.88
2022-08-22T08:01:07.560Z,1496.25
2022-08-22T08:02:07.675Z,1501.88
2022-08-22T08:03:08.469Z,1552.50
2022-08-22T08:04:07.517Z,1614.38
2022-08-22T08:05:08.294Z,1603.12
2022-08-22T08:06:07.439Z,1625.62
2022-08-22T08:07:07.430Z,1636.88
2022-08-22T08:08:07.521Z,1676.25
2022-08-22T08:09:07.468Z,1659.38
2022-08-22T08:10:12.755Z,1681.88
2022-08-22T08:11:07.367Z,1749.38
2022-08-22T08:12:07.368Z,1800.00
2022-08-22T08:13:07.382Z,1822.50
2022-08-22T08:14:07.423Z,1811.25
2022-08-22T08:15:07.408Z,1816.88
2022-08-22T08:16:07.331Z,1856.25
2022-08-22T08:17:07.308Z,1845.00
2022-08-22T08:18:08.053Z,1856.25
2022-08-22T08:19:07.325Z,1906.88
2022-08-22T08:20:07.474Z,1929.38
2022-08-22T08:21:07.252Z,1912.50
2022-08-22T08:22:07.248Z,1940.62
2022-08-22T08:23:07.194Z,1974.38
2022-08-22T08:24:07.984Z,2041.88
2022-08-22T08:25:07.174Z,2098.12
2022-08-22T08:26:07.210Z,2081.25
2022-08-22T08:27:07.955Z,2041.88
2022-08-22T08:28:07.205Z,2137.50
2022-08-22T08:29:07.158Z,2143.12
2022-08-22T08:30:07.128Z,2131.88
2022-08-22T08:31:07.140Z,2143.12
2022-08-22T08:32:07.096Z,2126.25
2022-08-22T08:33:25.296Z,2126.25
2022-08-22T08:34:08.080Z,2188.12
2022-08-22T08:35:07.111Z,2238.75
2022-08-22T08:36:07.079Z,2205.00
2022-08-22T08:37:07.131Z,2199.38
2022-08-22T08:38:07.020Z,2176.88
2022-08-22T08:39:07.011Z,2238.75
2022-08-22T08:40:07.836Z,2295.00
2022-08-22T08:41:06.990Z,2227.50
2022-08-22T08:42:07.400Z,2227.50
2022-08-22T08:43:10.712Z,2311.88
2022-08-22T08:44:07.822Z,2278.12
2022-08-22T08:45:07.783Z,2244.38
2022-08-22T08:46:06.937Z,2261.25
2022-08-22T08:47:06.913Z,2385.00
2022-08-22T08:48:06.944Z,1068.75
2022-08-22T08:49:07.638Z,2340.00
2022-08-22T08:50:07.136Z,2351.25
2022-08-22T08:51:06.885Z,2311.88
2022-08-22T08:52:07.057Z,2323.12
2022-08-22T08:53:06.865Z,2396.25
2022-08-22T08:54:06.809Z,2407.50
2022-08-22T08:55:19.911Z,2430.00
2022-08-22T08:56:07.767Z,2452.50
2022-08-22T08:57:06.834Z,2435.62
2022-08-22T08:58:07.275Z,2491.88
2022-08-22T08:59:10.003Z,2548.12
2022-08-22T09:00:06.784Z,2435.62
2022-08-22T09:01:07.551Z,2373.75
2022-08-22T09:02:06.720Z,2475.00
2022-08-22T09:03:07.301Z,2520.00
2022-08-22T09:04:06.721Z,2486.25
2022-08-22T09:05:07.682Z,2553.75
2022-08-22T09:06:06.716Z,2514.38
2022-08-22T09:07:06.787Z,2587.50
2022-08-22T09:08:06.643Z,2632.50
2022-08-22T09:09:07.624Z,2660.62
2022-08-22T09:10:06.705Z,2604.38
2022-08-22T09:11:09.682Z,1485.00
2022-08-22T09:12:06.625Z,2756.25
2022-08-22T09:14:07.631Z,2643.75
2022-08-22T09:15:14.141Z,2694.38
2022-08-22T09:16:07.556Z,2739.38
2022-08-22T09:18:07.507Z,2728.12
2022-08-22T09:19:06.538Z,2756.25
2022-08-22T09:20:17.525Z,2666.25
2022-08-22T09:21:08.450Z,2722.50
2022-08-22T09:22:06.489Z,2801.25
2022-08-22T09:23:10.909Z,2790.00
2022-08-22T09:24:06.480Z,2851.88
2022-08-22T09:25:06.576Z,2840.62
2022-08-22T09:26:06.482Z,2750.62
2022-08-22T09:27:08.726Z,2885.62
2022-08-22T09:28:06.423Z,3037.50
2022-08-22T09:29:06.435Z,2981.25
2022-08-22T09:30:06.395Z,2919.38
2022-08-22T09:31:16.842Z,2964.38
2022-08-22T09:32:07.354Z,2930.62
2022-08-22T09:33:08.274Z,2908.12
2022-08-22T09:34:06.309Z,3138.75
2022-08-22T09:35:06.278Z,2992.50
2022-08-22T09:36:06.746Z,3003.75
2022-08-22T09:37:07.317Z,3116.25
2022-08-22T09:38:06.243Z,2986.88
2022-08-22T09:39:06.237Z,2700.00
2022-08-22T09:40:06.255Z,2835.00
2022-08-22T09:40:16.659Z,2739.38
2022-08-22T09:41:06.228Z,3026.25
2022-08-22T09:42:06.218Z,3031.88
2022-08-22T09:43:06.180Z,3082.50
2022-08-22T09:44:06.262Z,3234.38
2022-08-22T09:45:06.220Z,3189.38
2022-08-22T09:46:06.183Z,3211.88
2022-08-22T09:47:06.170Z,3228.75
2022-08-22T09:48:07.279Z,3217.50
2022-08-22T09:49:06.563Z,3324.38
2022-08-22T09:50:06.172Z,3420.00
2022-08-22T09:51:31.319Z,3155.62
2022-08-22T09:52:14.458Z,2930.62
2022-08-22T09:53:07.892Z,3093.75
2022-08-22T09:54:06.073Z,3290.62
2022-08-22T09:55:08.542Z,3144.38
2022-08-22T09:56:15.097Z,3144.38
2022-08-22T09:57:07.096Z,3003.75
2022-08-22T09:58:11.229Z,2778.75
2022-08-22T09:59:06.654Z,2812.50
2022-08-22T10:00:06.015Z,2570.62
2022-08-22T10:01:06.167Z,3155.62
2022-08-22T10:02:06.191Z,3195.00
2022-08-22T10:03:07.047Z,3189.38
2022-08-22T10:04:06.835Z,3206.25
2022-08-22T10:05:05.909Z,3211.88
2022-08-22T10:06:06.915Z,3116.25
2022-08-22T10:07:11.152Z,3234.38
2022-08-22T10:08:06.879Z,3346.88
2022-08-22T10:09:05.911Z,3268.12
2022-08-22T10:10:05.837Z,3341.25
2022-08-22T10:11:06.683Z,3318.75
2022-08-22T10:12:05.839Z,3234.38
2022-08-22T10:13:10.239Z,3251.25
2022-08-22T10:14:07.309Z,3431.25
2022-08-22T10:15:06.722Z,3352.50
2022-08-22T10:16:06.717Z,1344.38
2022-08-22T10:17:07.212Z,1794.38
2022-08-22T10:18:05.745Z,2306.25
2022-08-22T10:19:06.013Z,911.25
2022-08-22T10:20:05.730Z,883.12
2022-08-22T10:21:05.714Z,866.25
2022-08-22T10:22:05.688Z,877.50
2022-08-22T10:23:05.684Z,877.50
2022-08-22T10:24:07.262Z,990.00
2022-08-22T10:25:05.695Z,2739.38
2022-08-22T10:26:05.837Z,3566.25
2022-08-22T10:27:06.417Z,3532.50
2022-08-22T10:28:05.661Z,3577.50
2022-08-22T10:29:05.807Z,3661.88
2022-08-22T10:30:05.897Z,3785.62
2022-08-22T10:31:05.566Z,3870.00
2022-08-22T10:32:10.716Z,3853.12
2022-08-22T10:33:06.845Z,3830.62
2022-08-22T10:34:05.590Z,3864.38
2022-08-22T10:35:06.367Z,3757.50
2022-08-22T10:36:05.516Z,3729.38
2022-08-22T10:37:05.511Z,3881.25
2022-08-22T10:38:05.522Z,3830.62
2022-08-22T10:39:11.474Z,3690.00
2022-08-22T10:40:06.559Z,3735.00
2022-08-22T10:41:09.327Z,3678.75
2022-08-22T10:42:05.482Z,3757.50
2022-08-22T10:43:05.426Z,3763.12
2022-08-22T10:44:05.468Z,3690.00
2022-08-22T10:45:05.435Z,3470.62
2022-08-22T10:46:06.773Z,3453.75
2022-08-22T10:47:06.434Z,3566.25
2022-08-22T10:48:08.879Z,3667.50
2022-08-22T10:49:05.399Z,3712.50
2022-08-22T10:50:08.661Z,3858.75
2022-08-22T10:51:08.772Z,4123.12
2022-08-22T10:52:14.704Z,2818.12
2022-08-22T10:53:06.369Z,1760.62
2022-08-22T10:54:05.289Z,3324.38
2022-08-22T10:55:05.754Z,3976.88
2022-08-22T10:56:05.278Z,3796.88
2022-08-22T10:57:06.657Z,3937.50
2022-08-22T10:58:06.268Z,3948.75
2022-08-22T10:59:05.266Z,4050.00
2022-08-22T11:00:05.243Z,4111.88
2022-08-22T11:01:38.136Z,3830.62
2022-08-22T11:02:06.244Z,3684.38
2022-08-22T11:03:07.841Z,3836.25
2022-08-22T11:04:06.223Z,3813.75
2022-08-22T11:05:05.192Z,3971.25
2022-08-22T11:06:05.153Z,4089.38
2022-08-22T11:07:05.289Z,4190.62
2022-08-22T11:08:05.215Z,3954.38
2022-08-22T11:09:05.257Z,3858.75
2022-08-22T11:10:05.145Z,3825.00
2022-08-22T11:11:05.194Z,4308.75
2022-08-22T11:12:05.136Z,4325.62
2022-08-22T11:13:05.116Z,4246.88
2022-08-22T11:14:05.106Z,4393.12
2022-08-22T11:15:05.126Z,4325.62
2022-08-22T11:16:05.849Z,4398.75
2022-08-22T11:17:23.605Z,3999.38
2022-08-22T11:18:06.100Z,3650.62
2022-08-22T11:19:14.921Z,3195.00
2022-08-22T11:20:06.050Z,3189.38
2022-08-22T11:21:05.018Z,2739.38
2022-08-22T11:22:05.004Z,2615.62
2022-08-22T11:23:04.958Z,2851.88
2022-08-22T11:24:05.003Z,3043.12
2022-08-22T11:25:05.160Z,3954.38
2022-08-22T11:26:05.247Z,3740.62
2022-08-22T11:27:07.218Z,3943.12
2022-08-22T11:28:04.889Z,4117.50
2022-08-22T11:29:13.283Z,4100.62
2022-08-22T11:30:05.895Z,4235.62
2022-08-22T11:31:07.050Z,4162.50
2022-08-22T11:32:06.123Z,3971.25
2022-08-22T11:33:05.103Z,4156.88
2022-08-22T11:34:04.843Z,4246.88
2022-08-22T11:35:04.824Z,4314.38
2022-08-22T11:36:04.850Z,4398.75
2022-08-22T11:37:04.839Z,4286.25
2022-08-22T11:38:05.827Z,2998.12
2022-08-22T11:39:07.919Z,3909.38
2022-08-22T11:40:07.741Z,3780.00
2022-08-22T11:41:04.820Z,4095.00
2022-08-22T11:42:04.846Z,4089.38
2022-08-22T11:43:04.994Z,4117.50
2022-08-22T11:44:04.748Z,4010.62
2022-08-22T11:45:04.737Z,3881.25
2022-08-22T11:46:05.156Z,4078.12
2022-08-22T11:47:04.690Z,3937.50
2022-08-22T11:48:04.677Z,3858.75
2022-08-22T11:49:05.458Z,3701.25
2022-08-22T11:50:05.574Z,2407.50
2022-08-22T11:51:13.118Z,2418.75
2022-08-22T11:52:05.740Z,2250.00
2022-08-22T11:53:07.581Z,1507.50
2022-08-22T11:54:04.701Z,1771.88
2022-08-22T11:55:04.573Z,1389.38
2022-08-22T11:56:05.508Z,1378.12
2022-08-22T11:57:04.563Z,1490.62
2022-08-22T11:58:04.581Z,1091.25
2022-08-22T11:59:04.565Z,2199.38
2022-08-22T12:00:04.583Z,2205.00
2022-08-22T12:01:04.564Z,2902.50
2022-08-22T12:02:04.666Z,3560.62
2022-08-22T12:03:04.514Z,3504.38
2022-08-22T12:04:04.865Z,2750.62
2022-08-22T12:05:05.505Z,3875.62
2022-08-22T12:06:04.814Z,3746.25
2022-08-22T12:07:05.309Z,3931.88
2022-08-22T12:08:04.447Z,3875.62
2022-08-22T12:09:05.336Z,3825.00
2022-08-22T12:10:05.241Z,3780.00
2022-08-22T12:11:04.677Z,3937.50
2022-08-22T12:12:04.665Z,3566.25
2022-08-22T12:13:05.277Z,3515.62
2022-08-22T12:14:06.165Z,2503.12
2022-08-22T12:15:05.130Z,2300.62
2022-08-22T12:16:05.172Z,2154.38
2022-08-22T12:17:04.413Z,2441.25
2022-08-22T12:18:04.386Z,3425.62
2022-08-22T12:19:06.302Z,3830.62
2022-08-22T12:20:19.029Z,3481.88
2022-08-22T12:21:05.296Z,3633.75
2022-08-22T12:22:04.333Z,3650.62
2022-08-22T12:23:04.593Z,2986.88
2022-08-22T12:24:06.217Z,1878.75
2022-08-22T12:25:04.286Z,1057.50
2022-08-22T12:26:05.238Z,984.38
2022-08-22T12:27:07.919Z,2874.38
2022-08-22T12:28:04.302Z,3352.50
2022-08-22T12:29:04.266Z,3650.62
2022-08-22T12:30:05.222Z,1051.88
2022-08-22T12:31:05.196Z,888.75
2022-08-22T12:32:04.177Z,810.00
2022-08-22T12:33:04.877Z,776.25
2022-08-22T12:34:04.252Z,781.88
2022-08-22T12:35:13.810Z,804.38
2022-08-22T12:36:09.554Z,843.75
2022-08-22T12:37:05.167Z,877.50
2022-08-22T12:38:04.426Z,911.25
2022-08-22T12:39:05.124Z,961.88
2022-08-22T12:40:04.090Z,1141.88
2022-08-22T12:41:08.128Z,3245.62
2022-08-22T12:42:05.036Z,1265.62
2022-08-22T12:43:04.058Z,3898.12
2022-08-22T12:44:04.036Z,3633.75
2022-08-22T12:45:04.723Z,3403.12
2022-08-22T12:46:04.835Z,3611.25
2022-08-22T12:47:04.237Z,3746.25
2022-08-22T12:48:03.953Z,4050.00
2022-08-22T12:49:07.414Z,3785.62
2022-08-22T12:50:04.727Z,1507.50
2022-08-22T12:51:03.955Z,1951.88
2022-08-22T12:52:04.934Z,3481.88
2022-08-22T12:53:03.906Z,3836.25
2022-08-22T12:54:04.878Z,3960.00
2022-08-22T12:55:03.935Z,3976.88
2022-08-22T12:56:03.889Z,3898.12
2022-08-22T12:57:03.898Z,4021.88
2022-08-22T12:58:04.946Z,4224.38
2022-08-22T12:59:03.820Z,4005.00
2022-08-22T13:00:03.830Z,3870.00
2022-08-22T13:01:03.886Z,3088.12
2022-08-22T13:02:04.592Z,2379.38
2022-08-22T13:03:04.759Z,2626.88
2022-08-22T13:04:04.026Z,2621.25
2022-08-22T13:05:03.789Z,2604.38
2022-08-22T13:06:03.782Z,2193.75
2022-08-22T13:07:03.836Z,3133.12
2022-08-22T13:08:05.062Z,3571.88
2022-08-22T13:09:03.719Z,4072.50
2022-08-22T13:10:04.755Z,3808.12
2022-08-22T13:11:03.686Z,3853.12
2022-08-22T13:12:04.687Z,3875.62
2022-08-22T13:13:03.801Z,3813.75
2022-08-22T13:14:04.708Z,3757.50
2022-08-22T13:15:03.894Z,3690.00
2022-08-22T13:16:03.852Z,3510.00
2022-08-22T13:17:23.645Z,3273.75
2022-08-22T13:18:28.721Z,3155.62
2022-08-22T13:19:07.820Z,3082.50
2022-08-22T13:20:03.940Z,3048.75
2022-08-22T13:21:03.891Z,2880.00
2022-08-22T13:22:03.570Z,2700.00
2022-08-22T13:23:03.650Z,2711.25
2022-08-22T13:24:04.539Z,2829.38
2022-08-22T13:25:04.937Z,3088.12
2022-08-22T13:26:03.764Z,3211.88
2022-08-22T13:27:03.499Z,3268.12
2022-08-22T13:28:04.125Z,3043.12
2022-08-22T13:29:24.566Z,3504.38
2022-08-22T13:30:05.231Z,3408.75
2022-08-22T13:31:03.463Z,3105.00
2022-08-22T13:32:03.453Z,3116.25
2022-08-22T13:33:03.425Z,3481.88
2022-08-22T13:34:03.377Z,3330.00
2022-08-22T13:35:03.478Z,2677.50
2022-08-22T13:36:03.374Z,3251.25
2022-08-22T13:37:03.345Z,3093.75
2022-08-22T13:38:03.604Z,1715.62
2022-08-22T13:39:04.128Z,3633.75
2022-08-22T13:40:03.445Z,2019.38
2022-08-22T13:41:03.347Z,1333.12
2022-08-22T13:42:03.607Z,1158.75
2022-08-22T13:43:04.300Z,1057.50
2022-08-22T13:44:03.350Z,1012.50
2022-08-22T13:45:04.604Z,995.62
2022-08-22T13:46:03.269Z,1023.75
2022-08-22T13:47:13.586Z,1046.25
2022-08-22T13:48:05.049Z,1051.88
2022-08-22T13:49:03.224Z,995.62
2022-08-22T13:50:03.202Z,978.75
2022-08-22T13:51:03.212Z,990.00
2022-08-22T13:52:03.262Z,1012.50
2022-08-22T13:53:03.162Z,1119.38
2022-08-22T13:54:03.183Z,1125.00
2022-08-22T13:55:04.833Z,1046.25
2022-08-22T13:56:04.896Z,1012.50
2022-08-22T13:57:03.174Z,1046.25
2022-08-22T13:58:03.270Z,1130.62
2022-08-22T13:59:03.095Z,1389.38
2022-08-22T14:00:06.109Z,2227.50
2022-08-22T14:01:03.145Z,2165.62
2022-08-22T14:02:03.115Z,2148.75
2022-08-22T14:03:05.371Z,2266.88
2022-08-22T14:04:03.090Z,1800.00
2022-08-22T14:05:04.127Z,1293.75
2022-08-22T14:06:06.303Z,1170.00
2022-08-22T14:07:04.494Z,1108.12
2022-08-22T14:08:03.095Z,1040.62
2022-08-22T14:09:03.047Z,984.38
2022-08-22T14:10:03.247Z,967.50
2022-08-22T14:11:03.925Z,961.88
2022-08-22T14:12:02.952Z,984.38
2022-08-22T14:13:03.053Z,1035.00
2022-08-22T14:14:02.912Z,1085.62
2022-08-22T14:15:02.960Z,2975.62
2022-08-22T14:16:03.640Z,2835.00
2022-08-22T14:17:02.868Z,2992.50
2022-08-22T14:18:03.367Z,3009.38
2022-08-22T14:19:06.237Z,1181.25
2022-08-22T14:20:02.843Z,1327.50
2022-08-22T14:21:02.870Z,2818.12
2022-08-22T14:22:03.138Z,2806.88
2022-08-22T14:23:04.705Z,2812.50
2022-08-22T14:24:02.811Z,2964.38
2022-08-22T14:25:02.758Z,2863.12
2022-08-22T14:26:02.735Z,2733.75
2022-08-22T14:27:05.435Z,2812.50
2022-08-22T14:28:03.185Z,2610.00
2022-08-22T14:29:03.939Z,2846.25
2022-08-22T14:30:02.967Z,2840.62
2022-08-22T14:31:02.687Z,3048.75
2022-08-22T14:32:02.830Z,3099.38
2022-08-22T14:33:02.710Z,3178.12
2022-08-22T14:34:02.856Z,3251.25
2022-08-22T14:35:02.700Z,3223.12
2022-08-22T14:36:02.869Z,3172.50
2022-08-22T14:37:02.706Z,3161.25
2022-08-22T14:38:02.970Z,3211.88
2022-08-22T14:39:02.818Z,3138.75
2022-08-22T14:40:02.668Z,2992.50
2022-08-22T14:41:03.395Z,2970.00
2022-08-22T14:42:04.063Z,2874.38
2022-08-22T14:43:02.634Z,2615.62
2022-08-22T14:44:02.839Z,1265.62
2022-08-22T14:45:02.533Z,1231.88
2022-08-22T14:46:02.502Z,1198.12
2022-08-22T14:47:04.177Z,1321.88
2022-08-22T14:48:30.490Z,1316.25
2022-08-22T14:49:04.039Z,1215.00
2022-08-22T14:50:02.464Z,1209.38
2022-08-22T14:51:03.861Z,1203.75
2022-08-22T14:52:02.381Z,1226.25
2022-08-22T14:53:02.432Z,1305.00
2022-08-22T14:54:04.284Z,1321.88
2022-08-22T14:55:06.242Z,1327.50
2022-08-22T14:56:03.564Z,1299.38
2022-08-22T14:57:02.363Z,1260.00
2022-08-22T14:58:03.518Z,1243.12
2022-08-22T14:59:02.313Z,1215.00
2022-08-22T15:00:02.470Z,1192.50
2022-08-22T15:01:02.323Z,1186.88
2022-08-22T15:02:02.421Z,1136.25
2022-08-22T15:03:02.285Z,1035.00
2022-08-22T15:04:02.253Z,1001.25
2022-08-22T15:05:02.259Z,984.38
2022-08-22T15:06:02.436Z,922.50
2022-08-22T15:07:02.225Z,950.62
2022-08-22T15:08:02.277Z,945.00
2022-08-22T15:09:07.761Z,905.62
2022-08-22T15:10:03.556Z,888.75
2022-08-22T15:11:02.201Z,832.50
2022-08-22T15:12:03.795Z,798.75
2022-08-22T15:13:02.129Z,781.88
2022-08-22T15:14:02.122Z,759.38
2022-08-22T15:15:02.117Z,753.75
2022-08-22T15:16:08.030Z,748.12
2022-08-22T15:17:03.123Z,748.12
2022-08-22T15:18:02.203Z,731.25
2022-08-22T15:19:02.074Z,725.62
2022-08-22T15:20:02.908Z,725.62
2022-08-22T15:21:02.046Z,725.62
2022-08-22T15:22:02.015Z,720.00
2022-08-22T15:23:02.370Z,708.75
2022-08-22T15:24:02.816Z,697.50
2022-08-22T15:25:01.984Z,686.25
2022-08-22T15:26:01.960Z,680.62
2022-08-22T15:27:02.766Z,669.38
2022-08-22T15:28:05.311Z,663.75
2022-08-22T15:29:02.848Z,658.12
2022-08-22T15:30:01.898Z,652.50
2022-08-22T15:31:03.746Z,646.88
2022-08-22T15:32:02.194Z,646.88
2022-08-22T15:33:02.094Z,635.62
2022-08-22T15:34:01.912Z,624.38
2022-08-22T15:35:03.834Z,613.12
2022-08-22T15:36:01.801Z,613.12
2022-08-22T15:37:01.833Z,601.88
2022-08-22T15:38:02.793Z,585.00
2022-08-22T15:39:01.824Z,568.12
2022-08-22T15:40:02.970Z,545.62
2022-08-22T15:41:02.823Z,545.62
2022-08-22T15:42:01.767Z,534.38
2022-08-22T15:43:01.782Z,528.75
2022-08-22T15:44:01.730Z,528.75
2022-08-22T15:45:01.756Z,528.75
2022-08-22T15:46:01.699Z,528.75
2022-08-22T15:47:03.169Z,534.38
2022-08-22T15:48:01.676Z,540.00
2022-08-22T15:49:01.685Z,545.62
2022-08-22T15:50:01.746Z,540.00
2022-08-22T15:51:01.715Z,517.50
2022-08-22T15:52:01.830Z,478.12
2022-08-22T15:53:04.879Z,450.00
2022-08-22T15:54:01.591Z,450.00
2022-08-22T15:55:01.620Z,410.62
2022-08-22T15:56:04.928Z,399.38
2022-08-22T15:57:01.546Z,388.12
2022-08-22T15:58:02.508Z,382.50
2022-08-22T15:59:02.291Z,376.88
2022-08-22T16:00:02.387Z,365.62
2022-08-22T16:01:02.252Z,360.00
2022-08-22T16:02:04.244Z,354.38
2022-08-22T16:03:01.757Z,354.38
2022-08-22T16:04:01.852Z,348.75
2022-08-22T16:05:01.425Z,354.38
2022-08-22T16:06:01.414Z,365.62
2022-08-22T16:07:01.417Z,416.25
2022-08-22T16:08:02.354Z,478.12
2022-08-22T16:09:02.257Z,506.25
2022-08-22T16:10:01.890Z,528.75
2022-08-22T16:11:02.336Z,556.88
2022-08-22T16:12:01.914Z,590.62
2022-08-22T16:13:01.397Z,742.50
2022-08-22T16:14:01.937Z,1130.62
2022-08-22T16:15:01.898Z,1378.12
2022-08-22T16:16:01.880Z,1389.38
2022-08-22T16:17:01.932Z,1395.00
2022-08-22T16:18:01.264Z,1400.62
2022-08-22T16:19:02.069Z,1428.75
2022-08-22T16:20:02.221Z,1383.75
2022-08-22T16:21:01.211Z,1338.75
2022-08-22T16:22:02.039Z,1316.25
2022-08-22T16:23:01.937Z,1276.88
2022-08-22T16:24:01.177Z,1209.38
2022-08-22T16:25:01.583Z,1018.12
2022-08-22T16:26:01.983Z,1063.12
2022-08-22T16:27:02.068Z,911.25
2022-08-22T16:28:01.208Z,1051.88
2022-08-22T16:29:01.877Z,1119.38
2022-08-22T16:30:02.085Z,1096.88
2022-08-22T16:31:01.088Z,1119.38
2022-08-22T16:32:01.076Z,1113.75
2022-08-22T16:33:01.068Z,1102.50
2022-08-22T16:34:01.075Z,1108.12
2022-08-22T16:35:01.813Z,1080.00
2022-08-22T16:36:01.017Z,1063.12
2022-08-22T16:37:01.029Z,1080.00
2022-08-22T16:38:01.141Z,1096.88
2022-08-22T16:39:00.973Z,1080.00
2022-08-22T16:40:01.061Z,1023.75
2022-08-22T16:41:01.053Z,1012.50
2022-08-22T16:42:01.030Z,1040.62
2022-08-22T16:43:00.881Z,793.12
2022-08-22T16:44:00.902Z,933.75
2022-08-22T16:45:00.932Z,804.38
2022-08-22T16:46:00.885Z,601.88
2022-08-22T16:47:00.855Z,573.75
2022-08-22T16:48:01.845Z,556.88
2022-08-22T16:49:00.994Z,472.50
2022-08-22T16:50:01.076Z,416.25
2022-08-22T16:51:01.034Z,376.88
2022-08-22T16:52:01.016Z,320.62
2022-08-22T16:53:01.077Z,247.50
2022-08-22T16:54:01.037Z,219.38
2022-08-22T16:55:01.007Z,213.75
2022-08-22T16:56:01.086Z,202.50
2022-08-22T16:57:00.756Z,196.88
2022-08-22T16:58:06.468Z,196.88
2022-08-22T16:59:14.077Z,191.25
2022-08-22T17:00:02.508Z,185.62
2022-08-22T17:01:00.667Z,185.62
2022-08-22T17:02:01.012Z,185.62
2022-08-22T17:03:00.679Z,174.38
2022-08-22T17:04:01.020Z,168.75
2022-08-22T17:05:00.580Z,168.75
2022-08-22T17:06:01.062Z,163.12
2022-08-22T17:07:01.040Z,163.12
2022-08-22T17:08:01.292Z,163.12
2022-08-22T17:09:00.596Z,163.12
2022-08-22T17:10:00.542Z,168.75
2022-08-22T17:11:00.501Z,168.75
2022-08-22T17:12:00.664Z,174.38
2022-08-22T17:13:00.533Z,168.75
2022-08-22T17:14:00.503Z,163.12
2022-08-22T17:15:00.445Z,157.50
2022-08-22T17:16:00.464Z,151.88
2022-08-22T17:17:00.451Z,151.88
2022-08-22T17:18:00.559Z,146.25
2022-08-22T17:19:01.855Z,146.25
2022-08-22T17:20:00.495Z,140.62
2022-08-22T17:21:00.403Z,140.62
2022-08-22T17:22:00.356Z,146.25
2022-08-22T17:23:00.344Z,146.25
2022-08-22T17:24:00.360Z,140.62
2022-08-22T17:25:00.331Z,135.00
2022-08-22T17:26:00.279Z,135.00
2022-08-22T17:27:00.328Z,135.00
2022-08-22T17:28:00.450Z,129.38
2022-08-22T17:29:00.338Z,129.38
2022-08-22T17:30:00.254Z,123.75
2022-08-22T17:31:00.210Z,123.75
2022-08-22T17:32:00.529Z,118.12
2022-08-22T17:33:00.303Z,118.12
2022-08-22T17:34:00.181Z,118.12
2022-08-22T17:35:00.319Z,112.50
2022-08-22T17:36:00.145Z,112.50
2022-08-22T17:37:00.173Z,112.50
2022-08-22T17:38:00.353Z,112.50
2022-08-22T17:39:00.216Z,106.88
2022-08-22T17:40:00.417Z,106.88